Time;durP1;ratioP1;P1;durP2;ratioP2;P2;SDS_P1;SDS_P2;PMS_P1;PMS_P2;Temp;Humidity;BMP_temperature;BMP_pressure;BME280_temperature;BME280_humidity;BME280_pressure;Samples;Min_cycle;Max_cycle;Signal;HPM_P1;HPM_P2
2021/09/18 00:01:45;;;;;;;34.03;22.63;;;;;;;-146.90;100.00;60518.97;5082816;28;20068;-82
2021/09/18 00:04:10;;;;;;;31.60;23.23;;;;;;;-146.90;100.00;60518.97;5073615;28;20103;-82
2021/09/18 00:06:36;;;;;;;33.33;24.00;;;;;;;-146.90;100.00;60518.97;5085367;28;20031;-82
2021/09/18 00:09:02;;;;;;;34.33;24.05;;;;;;;-146.90;100.00;60518.97;5090922;28;20039;-81
2021/09/18 00:11:28;;;;;;;31.23;22.65;;;;;;;-146.90;100.00;60518.97;5089605;28;20012;-82
2021/09/18 00:13:53;;;;;;;31.90;22.40;;;;;;;-146.90;100.00;60518.97;5082107;28;20062;-81
2021/09/18 00:16:18;;;;;;;28.13;19.10;;;;;;;-146.90;100.00;60518.97;5088293;28;20035;-82
2021/09/18 00:18:44;;;;;;;29.38;22.58;;;;;;;-146.90;100.00;60518.97;5081559;28;20425;-82
2021/09/18 00:21:09;;;;;;;33.25;22.98;;;;;;;-146.90;100.00;60518.97;5088391;28;20025;-82
2021/09/18 00:23:34;;;;;;;29.23;21.73;;;;;;;-146.90;100.00;60518.97;5092142;28;20020;-82
2021/09/18 00:26:00;;;;;;;35.42;25.05;;;;;;;-146.90;100.00;60518.97;5080647;28;20032;-82
2021/09/18 00:28:25;;;;;;;32.80;24.38;;;;;;;-146.90;100.00;60518.97;5091113;28;20381;-82
2021/09/18 00:30:52;;;;;;;32.65;22.10;;;;;;;-146.90;100.00;60518.97;5085775;28;20031;-81
2021/09/18 00:33:17;;;;;;;34.53;23.10;;;;;;;-146.90;100.00;60518.97;5085945;28;20202;-82
2021/09/18 00:35:42;;;;;;;32.33;23.70;;;;;;;-146.90;100.00;60518.97;5079151;28;20119;-81
2021/09/18 00:38:08;;;;;;;30.23;21.48;;;;;;;-146.90;100.00;60518.97;5091001;28;20446;-81
2021/09/18 00:40:34;;;;;;;31.58;22.25;;;;;;;-146.90;100.00;60518.97;5091292;28;20086;-81
2021/09/18 00:43:00;;;;;;;29.88;20.48;;;;;;;-146.90;100.00;60518.97;5090613;28;20034;-82
2021/09/18 00:45:25;;;;;;;31.73;23.50;;;;;;;-146.90;100.00;60518.97;5088029;28;20103;-81
2021/09/18 00:47:50;;;;;;;33.05;23.63;;;;;;;-146.90;100.00;60518.97;5081370;28;20058;-82
2021/09/18 00:50:16;;;;;;;29.00;21.35;;;;;;;-146.90;100.00;60518.97;5083451;28;20120;-82
2021/09/18 00:52:41;;;;;;;33.08;23.73;;;;;;;-146.90;100.00;60518.97;5073324;28;20107;-82
2021/09/18 00:55:07;;;;;;;29.45;22.58;;;;;;;-146.90;100.00;60518.97;5071867;28;20055;-82
2021/09/18 00:57:32;;;;;;;32.97;22.02;;;;;;;-146.90;100.00;60518.97;5091062;28;20074;-82
2021/09/18 01:00:02;;;;;;;34.20;23.35;;;;;;;-146.90;100.00;60518.97;5085369;28;20051;-82
2021/09/18 01:02:28;;;;;;;33.03;24.17;;;;;;;-146.90;100.00;60518.97;5090937;28;20024;-82
2021/09/18 01:04:53;;;;;;;33.08;24.30;;;;;;;-146.90;100.00;60518.97;5090514;28;20081;-82
2021/09/18 01:07:18;;;;;;;33.17;23.08;;;;;;;-146.90;100.00;60518.97;5090344;28;20024;-82
2021/09/18 01:09:44;;;;;;;36.03;24.30;;;;;;;-146.90;100.00;60518.97;5091099;28;20028;-82
2021/09/18 01:12:10;;;;;;;33.10;24.45;;;;;;;-146.90;100.00;60518.97;5089114;28;20022;-82
2021/09/18 01:14:35;;;;;;;30.40;22.13;;;;;;;-146.90;100.00;60518.97;5081320;28;20040;-82
2021/09/18 01:17:02;;;;;;;30.60;21.45;;;;;;;-146.90;100.00;60518.97;5084495;28;20611;-81
2021/09/18 01:19:27;;;;;;;28.25;22.48;;;;;;;-146.90;100.00;60518.97;5070998;28;20020;-82
2021/09/18 01:21:52;;;;;;;32.22;22.08;;;;;;;-146.90;100.00;60518.97;5068697;28;20024;-81
2021/09/18 01:24:18;;;;;;;30.30;21.00;;;;;;;-146.90;100.00;60518.97;5070026;28;20024;-81
2021/09/18 01:26:45;;;;;;;31.08;21.42;;;;;;;-146.90;100.00;60518.97;5070076;28;20052;-81
2021/09/18 01:29:11;;;;;;;28.38;21.15;;;;;;;-146.90;100.00;60518.97;5070068;28;20020;-82
2021/09/18 01:31:44;;;;;;;31.00;21.20;;;;;;;-146.90;100.00;60518.97;5069135;28;20085;-82
2021/09/18 01:34:10;;;;;;;26.30;19.70;;;;;;;-146.90;100.00;60518.97;5059102;28;20592;-82
2021/09/18 01:36:36;;;;;;;33.42;22.65;;;;;;;-146.90;100.00;60518.97;5069889;28;20036;-81
2021/09/18 01:39:03;;;;;;;30.38;21.02;;;;;;;-146.90;100.00;60518.97;5069213;28;20016;-82
2021/09/18 01:41:31;;;;;;;30.23;22.77;;;;;;;-146.90;100.00;60518.97;5069535;28;20028;-82
2021/09/18 01:43:58;;;;;;;30.45;21.73;;;;;;;-146.90;100.00;60518.97;5069518;28;20378;-82
2021/09/18 01:46:24;;;;;;;30.90;21.50;;;;;;;-146.90;100.00;60518.97;5069538;28;20020;-82
2021/09/18 01:48:49;;;;;;;33.10;21.83;;;;;;;-146.90;100.00;60518.97;5069367;28;20155;-82
2021/09/18 01:51:15;;;;;;;30.05;22.25;;;;;;;-146.90;100.00;60518.97;5069772;28;20017;-83
2021/09/18 01:53:40;;;;;;;28.83;20.90;;;;;;;-146.90;100.00;60518.97;5069236;28;20394;-82
2021/09/18 01:56:06;;;;;;;31.55;23.17;;;;;;;-146.90;100.00;60518.97;5066690;28;20016;-82
2021/09/18 01:58:31;;;;;;;33.33;21.60;;;;;;;-146.90;100.00;60518.97;5070057;28;20081;-82
2021/09/18 02:01:00;;;;;;;34.70;23.63;;;;;;;-146.90;100.00;60518.97;5068905;28;20059;-82
2021/09/18 02:03:25;;;;;;;27.63;19.27;;;;;;;-146.90;100.00;60518.97;5069853;28;20086;-82
2021/09/18 02:05:51;;;;;;;30.80;21.60;;;;;;;-146.90;100.00;60518.97;5068365;28;20682;-82
2021/09/18 02:08:16;;;;;;;26.38;20.45;;;;;;;-146.90;100.00;60518.97;5069110;28;20546;-83
2021/09/18 02:10:42;;;;;;;28.02;19.52;;;;;;;-146.90;100.00;60518.97;5069251;28;20028;-82
2021/09/18 02:13:09;;;;;;;30.48;20.15;;;;;;;-146.90;100.00;60518.97;5068870;28;20025;-82
2021/09/18 02:15:34;;;;;;;30.27;22.20;;;;;;;-146.90;100.00;60518.97;5069080;28;20108;-82
2021/09/18 02:18:00;;;;;;;28.55;18.85;;;;;;;-146.90;100.00;60518.97;5068627;28;20458;-82
2021/09/18 02:20:28;;;;;;;36.38;23.50;;;;;;;-146.90;100.00;60518.97;5069762;28;20033;-82
2021/09/18 02:22:53;;;;;;;30.85;22.80;;;;;;;-146.90;100.00;60518.97;5068791;28;20166;-82
2021/09/18 02:25:19;;;;;;;28.92;21.40;;;;;;;-146.90;100.00;60518.97;5069052;28;20036;-82
2021/09/18 02:27:45;;;;;;;34.20;22.30;;;;;;;-146.90;100.00;60518.97;5063434;28;20048;-82
2021/09/18 02:30:13;;;;;;;34.40;23.98;;;;;;;-146.90;100.00;60518.97;5058736;28;20024;-83
2021/09/18 02:32:38;;;;;;;39.63;25.23;;;;;;;-146.90;100.00;60518.97;5070154;28;20024;-83
2021/09/18 02:35:11;;;;;;;33.47;25.33;;;;;;;-146.90;100.00;60518.97;5071163;28;20226;-82
2021/09/18 02:37:37;;;;;;;35.25;24.88;;;;;;;-146.90;100.00;60518.97;5067859;28;20035;-82
2021/09/18 02:40:04;;;;;;;37.90;25.77;;;;;;;-146.90;100.00;60518.97;5068948;28;20421;-82
2021/09/18 02:42:29;;;;;;;37.00;27.33;;;;;;;-146.90;100.00;60518.97;5069488;28;20024;-83
2021/09/18 02:44:55;;;;;;;37.50;25.02;;;;;;;-146.90;100.00;60518.97;5067091;28;20039;-83
2021/09/18 02:47:20;;;;;;;41.85;28.08;;;;;;;-146.90;100.00;60518.97;5068814;28;20044;-83
2021/09/18 02:49:45;;;;;;;37.03;25.80;;;;;;;-146.90;100.00;60518.97;5068611;28;20111;-82
2021/09/18 02:52:11;;;;;;;38.63;26.30;;;;;;;-146.90;100.00;60518.97;5066013;28;20151;-82
2021/09/18 02:54:36;;;;;;;37.47;26.52;;;;;;;-146.90;100.00;60518.97;5068802;28;20056;-81
2021/09/18 02:57:02;;;;;;;36.42;25.67;;;;;;;-146.90;100.00;60518.97;5066624;28;20103;-81
2021/09/18 02:59:27;;;;;;;37.72;25.98;;;;;;;-146.90;100.00;60518.97;5068694;28;20047;-82
2021/09/18 03:01:52;;;;;;;38.72;25.40;;;;;;;-146.90;100.00;60518.97;5067726;28;20491;-82
2021/09/18 03:04:18;;;;;;;37.53;25.30;;;;;;;-146.90;100.00;60518.97;5067210;28;20031;-82
2021/09/18 03:06:43;;;;;;;40.13;26.77;;;;;;;-146.90;100.00;60518.97;5067441;28;20039;-82
2021/09/18 03:09:08;;;;;;;33.90;23.80;;;;;;;-146.90;100.00;60518.97;5067402;28;20026;-81
2021/09/18 03:11:34;;;;;;;40.08;26.58;;;;;;;-146.90;100.00;60518.97;5067859;28;20024;-82
2021/09/18 03:13:59;;;;;;;41.20;27.20;;;;;;;-146.90;100.00;60518.97;5049542;28;20112;-82
2021/09/18 03:16:24;;;;;;;38.53;25.52;;;;;;;-146.90;100.00;60518.97;5067197;28;20028;-82
2021/09/18 03:18:50;;;;;;;37.28;25.88;;;;;;;-146.90;100.00;60518.97;5067266;28;20051;-82
2021/09/18 03:21:15;;;;;;;42.67;27.70;;;;;;;-146.90;100.00;60518.97;5081852;28;20095;-82
2021/09/18 03:23:40;;;;;;;39.45;27.15;;;;;;;-146.90;100.00;60518.97;5089228;28;20495;-82
2021/09/18 03:26:06;;;;;;;39.67;27.23;;;;;;;-146.90;100.00;60518.97;5086280;28;20063;-82
2021/09/18 03:28:31;;;;;;;39.83;24.73;;;;;;;-146.90;100.00;60518.97;5089060;28;20022;-82
2021/09/18 03:30:57;;;;;;;33.80;24.13;;;;;;;-146.90;100.00;60518.97;5087109;28;20028;-82
2021/09/18 03:33:22;;;;;;;34.40;25.08;;;;;;;-146.90;100.00;60518.97;5088279;28;20047;-83
2021/09/18 03:35:49;;;;;;;38.28;26.48;;;;;;;-146.90;100.00;60518.97;5076937;28;20548;-82
2021/09/18 03:38:15;;;;;;;42.08;25.92;;;;;;;-146.90;100.00;60518.97;5088407;28;20035;-82
2021/09/18 03:40:40;;;;;;;40.90;26.60;;;;;;;-146.90;100.00;60518.97;5089099;28;20024;-81
2021/09/18 03:43:05;;;;;;;42.33;27.73;;;;;;;-146.90;100.00;60518.97;5075733;28;20506;-81
2021/09/18 03:45:30;;;;;;;41.53;27.90;;;;;;;-146.90;100.00;60518.97;5086276;28;20444;-81
2021/09/18 03:47:56;;;;;;;39.83;26.55;;;;;;;-146.90;100.00;60518.97;5088004;28;20077;-81
2021/09/18 03:50:21;;;;;;;37.53;26.65;;;;;;;-146.90;100.00;60518.97;5086672;28;20020;-82
2021/09/18 03:52:46;;;;;;;36.80;25.58;;;;;;;-146.90;100.00;60518.97;5076383;28;20031;-81
2021/09/18 03:55:12;;;;;;;34.25;24.25;;;;;;;-146.90;100.00;60518.97;5087402;28;20572;-81
2021/09/18 03:57:38;;;;;;;36.38;25.55;;;;;;;-146.90;100.00;60518.97;5088618;28;20095;-81
2021/09/18 04:00:05;;;;;;;37.95;26.15;;;;;;;-146.90;100.00;60518.97;5087009;28;20469;-81
2021/09/18 04:02:30;;;;;;;37.85;25.95;;;;;;;-146.90;100.00;60518.97;5085757;28;20047;-81
2021/09/18 04:04:55;;;;;;;38.08;25.63;;;;;;;-146.90;100.00;60518.97;5087699;28;20424;-81
2021/09/18 04:07:21;;;;;;;41.20;26.45;;;;;;;-146.90;100.00;60518.97;5087299;28;20069;-81
2021/09/18 04:09:46;;;;;;;42.45;28.85;;;;;;;-146.90;100.00;60518.97;5088746;28;20027;-81
2021/09/18 04:12:11;;;;;;;37.25;24.55;;;;;;;-146.90;100.00;60518.97;5078520;28;20052;-81
2021/09/18 04:14:37;;;;;;;43.95;29.70;;;;;;;-146.90;100.00;60518.97;5081755;28;20474;-81
2021/09/18 04:17:02;;;;;;;44.95;29.88;;;;;;;-146.90;100.00;60518.97;5078046;28;20028;-81
2021/09/18 04:19:27;;;;;;;47.75;28.83;;;;;;;-146.90;100.00;60518.97;5090027;28;20028;-81
2021/09/18 04:21:53;;;;;;;44.38;28.13;;;;;;;-146.90;100.00;60518.97;5090087;28;20024;-80
2021/09/18 04:24:18;;;;;;;40.72;28.77;;;;;;;-146.90;100.00;60518.97;5086276;28;20115;-81
2021/09/18 04:26:43;;;;;;;42.05;28.63;;;;;;;-146.90;100.00;60518.97;5090368;28;20118;-81
2021/09/18 04:29:09;;;;;;;41.40;29.10;;;;;;;-146.90;100.00;60518.97;5091052;28;20069;-81
2021/09/18 04:31:34;;;;;;;45.33;29.35;;;;;;;-146.90;100.00;60518.97;5090252;28;20080;-82
2021/09/18 04:33:59;;;;;;;46.58;30.65;;;;;;;-146.90;100.00;60518.97;5077682;28;20099;-83
2021/09/18 04:36:25;;;;;;;54.22;32.40;;;;;;;-146.90;100.00;60518.97;5070968;28;20033;-82
2021/09/18 04:38:50;;;;;;;49.00;32.25;;;;;;;-146.90;100.00;60518.97;5070816;28;20035;-81
2021/09/18 04:41:15;;;;;;;50.20;33.00;;;;;;;-146.90;100.00;60518.97;5070931;28;20048;-82
2021/09/18 04:43:41;;;;;;;51.22;33.45;;;;;;;-146.90;100.00;60518.97;5071288;28;20069;-81
2021/09/18 04:46:06;;;;;;;51.55;34.47;;;;;;;-146.90;100.00;60518.97;5069806;28;20371;-81
2021/09/18 04:48:31;;;;;;;49.45;33.15;;;;;;;-146.90;100.00;60518.97;5071029;28;20063;-80
2021/09/18 04:50:57;;;;;;;53.45;34.25;;;;;;;-146.90;100.00;60518.97;5068567;28;20423;-81
2021/09/18 04:53:22;;;;;;;57.45;34.40;;;;;;;-146.90;100.00;60518.97;5070649;28;20039;-82
2021/09/18 04:55:49;;;;;;;53.85;33.08;;;;;;;-146.90;100.00;60518.97;5068815;28;20032;-82
2021/09/18 04:58:14;;;;;;;53.60;34.17;;;;;;;-146.90;100.00;60518.97;5070727;28;20032;-80
2021/09/18 05:00:40;;;;;;;58.97;34.88;;;;;;;-146.90;100.00;60518.97;5070570;28;20437;-80
2021/09/18 05:03:06;;;;;;;52.33;33.58;;;;;;;-146.90;100.00;60518.97;5070059;28;20020;-80
2021/09/18 05:05:32;;;;;;;50.15;31.75;;;;;;;-146.90;100.00;60518.97;5068744;28;20478;-81
2021/09/18 05:07:57;;;;;;;52.38;33.47;;;;;;;-146.90;100.00;60518.97;5070308;28;20028;-81
2021/09/18 05:10:22;;;;;;;54.63;33.92;;;;;;;-146.90;100.00;60518.97;5070545;28;20076;-82
2021/09/18 05:12:48;;;;;;;52.88;32.50;;;;;;;-146.90;100.00;60518.97;5070290;28;20036;-81
2021/09/18 05:15:13;;;;;;;51.92;33.88;;;;;;;-146.90;100.00;60518.97;5065611;28;20063;-82
2021/09/18 05:17:39;;;;;;;54.15;34.05;;;;;;;-146.90;100.00;60518.97;5070576;28;20033;-80
2021/09/18 05:20:05;;;;;;;53.72;34.42;;;;;;;-146.90;100.00;60518.97;5069443;28;20024;-81
2021/09/18 05:22:30;;;;;;;49.92;32.35;;;;;;;-146.90;100.00;60518.97;5054884;28;20031;-81
2021/09/18 05:24:56;;;;;;;45.35;32.03;;;;;;;-146.90;100.00;60518.97;5069660;28;20028;-81
2021/09/18 05:27:21;;;;;;;47.85;31.45;;;;;;;-146.90;100.00;60518.97;5070219;28;20070;-81
2021/09/18 05:29:46;;;;;;;44.35;30.75;;;;;;;-146.90;100.00;60518.97;5068820;28;20027;-81
2021/09/18 05:32:12;;;;;;;49.78;31.45;;;;;;;-146.90;100.00;60518.97;5069436;28;20107;-81
2021/09/18 05:34:38;;;;;;;54.55;33.55;;;;;;;-146.90;100.00;60518.97;5069182;28;20033;-81
2021/09/18 05:37:04;;;;;;;43.70;30.40;;;;;;;-146.90;100.00;60518.97;5068039;28;20063;-81
2021/09/18 05:39:29;;;;;;;48.28;29.23;;;;;;;-146.90;100.00;60518.97;5068633;28;20036;-81
2021/09/18 05:41:54;;;;;;;44.67;30.40;;;;;;;-146.90;100.00;60518.97;5068914;28;20043;-82
2021/09/18 05:44:20;;;;;;;48.72;31.83;;;;;;;-146.90;100.00;60518.97;5070032;28;20055;-82
2021/09/18 05:46:45;;;;;;;48.45;33.13;;;;;;;-146.90;100.00;60518.97;5069166;28;20040;-82
2021/09/18 05:49:10;;;;;;;48.70;33.42;;;;;;;-146.90;100.00;60518.97;5069288;28;20586;-81
2021/09/18 05:51:36;;;;;;;57.40;33.10;;;;;;;-146.90;100.00;60518.97;5068023;28;20475;-82
2021/09/18 05:54:01;;;;;;;50.22;31.73;;;;;;;-146.90;100.00;60518.97;5069377;28;20109;-81
2021/09/18 05:56:26;;;;;;;50.67;31.67;;;;;;;-146.90;100.00;60518.97;5069555;28;20116;-81
2021/09/18 05:58:52;;;;;;;49.97;33.13;;;;;;;-146.90;100.00;60518.97;5069104;28;20489;-81
2021/09/18 06:01:17;;;;;;;43.92;28.77;;;;;;;-146.90;100.00;60518.97;5067933;28;20470;-81
2021/09/18 06:03:42;;;;;;;50.47;32.10;;;;;;;-146.90;100.00;60518.97;5068258;28;20044;-81
2021/09/18 06:06:08;;;;;;;48.53;30.70;;;;;;;-146.90;100.00;60518.97;5068921;28;20500;-81
2021/09/18 06:08:33;;;;;;;51.58;32.13;;;;;;;-146.90;100.00;60518.97;5067931;28;20490;-81
2021/09/18 06:10:59;;;;;;;45.75;31.88;;;;;;;-146.90;100.00;60518.97;5067922;28;20390;-81
2021/09/18 06:13:24;;;;;;;52.25;32.65;;;;;;;-146.90;100.00;60518.97;5069698;28;20024;-82
2021/09/18 06:15:49;;;;;;;48.35;31.58;;;;;;;-146.90;100.00;60518.97;5068729;28;20031;-81
2021/09/18 06:18:15;;;;;;;48.05;30.95;;;;;;;-146.90;100.00;60518.97;5069000;28;20470;-82
2021/09/18 06:20:40;;;;;;;52.97;33.47;;;;;;;-146.90;100.00;60518.97;5069511;28;20025;-82
2021/09/18 06:23:06;;;;;;;51.13;32.25;;;;;;;-146.90;100.00;60518.97;5067386;28;20363;-82
2021/09/18 06:25:31;;;;;;;54.42;32.92;;;;;;;-146.90;100.00;60518.97;5051072;28;20470;-82
2021/09/18 06:27:56;;;;;;;51.63;31.92;;;;;;;-146.90;100.00;60518.97;5067322;28;20023;-79
2021/09/18 06:30:21;;;;;;;48.63;32.55;;;;;;;-146.90;100.00;60518.97;5067520;28;20389;-78
2021/09/18 06:32:47;;;;;;;50.45;30.55;;;;;;;-146.90;100.00;60518.97;5067442;28;20474;-78
2021/09/18 06:35:13;;;;;;;46.97;32.00;;;;;;;-146.90;100.00;60518.97;5067567;28;20044;-78
2021/09/18 06:37:43;;;;;;;45.85;31.45;;;;;;;-146.90;100.00;60518.97;5069046;28;20028;-79
2021/09/18 06:40:11;;;;;;;49.85;33.05;;;;;;;-146.90;100.00;60518.97;5068206;28;20024;-82
2021/09/18 06:42:36;;;;;;;47.80;32.28;;;;;;;-146.90;100.00;60518.97;5067029;28;20024;-82
2021/09/18 06:45:02;;;;;;;52.30;32.17;;;;;;;-146.90;100.00;60518.97;5067601;28;20070;-81
2021/09/18 06:47:27;;;;;;;44.13;31.38;;;;;;;-146.90;100.00;60518.97;5068351;28;20027;-80
2021/09/18 06:49:52;;;;;;;48.28;31.42;;;;;;;-146.90;100.00;60518.97;5068003;28;20035;-81
2021/09/18 06:52:17;;;;;;;45.50;30.08;;;;;;;-146.90;100.00;60518.97;5048430;28;20028;-81
2021/09/18 06:54:43;;;;;;;49.78;32.13;;;;;;;-146.90;100.00;60518.97;5049686;28;20020;-84
2021/09/18 06:57:11;;;;;;;47.50;32.08;;;;;;;-146.90;100.00;60518.97;5061359;28;20033;-80
2021/09/18 06:59:38;;;;;;;42.97;29.83;;;;;;;-146.90;100.00;60518.97;5052972;28;20498;-82
2021/09/18 07:02:03;;;;;;;43.60;30.15;;;;;;;-146.90;100.00;60518.97;5064916;28;20066;-82
2021/09/18 07:04:29;;;;;;;45.58;30.52;;;;;;;-146.90;100.00;60518.97;5048682;28;20571;-83
2021/09/18 07:06:54;;;;;;;44.30;28.60;;;;;;;-146.90;100.00;60518.97;5048427;28;20029;-82
2021/09/18 07:09:19;;;;;;;46.30;30.75;;;;;;;-146.90;100.00;60518.97;5052605;28;20032;-81
2021/09/18 07:11:45;;;;;;;42.72;29.48;;;;;;;-146.90;100.00;60518.97;5049989;28;20114;-81
2021/09/18 07:14:10;;;;;;;48.60;31.70;;;;;;;-146.90;100.00;60518.97;5055122;28;20095;-83
2021/09/18 07:16:35;;;;;;;44.05;28.50;;;;;;;-146.90;100.00;60518.97;5049401;28;20044;-83
2021/09/18 07:19:01;;;;;;;39.55;28.98;;;;;;;-146.90;100.00;60518.97;5050146;28;20029;-83
2021/09/18 07:21:26;;;;;;;47.00;30.52;;;;;;;-146.90;100.00;60518.97;5067993;28;20039;-82
2021/09/18 07:23:51;;;;;;;49.10;30.95;;;;;;;-146.90;100.00;60518.97;5068327;28;20025;-82
2021/09/18 07:26:17;;;;;;;43.47;30.05;;;;;;;-146.90;100.00;60518.97;5065712;28;20137;-79
2021/09/18 07:28:42;;;;;;;41.78;28.25;;;;;;;-146.90;100.00;60518.97;5059314;28;20400;-81
2021/09/18 07:31:07;;;;;;;45.88;28.92;;;;;;;-146.90;100.00;60518.97;5061936;28;20417;-86
2021/09/18 07:33:33;;;;;;;41.80;29.17;;;;;;;-146.90;100.00;60518.97;5066657;28;20096;-83
2021/09/18 07:35:58;;;;;;;41.72;28.70;;;;;;;-146.90;100.00;60518.97;5062334;28;20390;-83
2021/09/18 07:38:23;;;;;;;40.42;29.00;;;;;;;-146.90;100.00;60518.97;5058318;28;20024;-79
2021/09/18 07:40:53;;;;;;;39.67;27.80;;;;;;;-146.90;100.00;60518.97;5065979;28;20028;-83
2021/09/18 07:43:19;;;;;;;40.42;27.40;;;;;;;-146.90;100.00;60518.97;5046858;28;20452;-75
2021/09/18 07:45:44;;;;;;;40.15;26.88;;;;;;;-146.90;100.00;60518.97;5067760;28;20028;-77
2021/09/18 07:48:09;;;;;;;38.92;27.35;;;;;;;-146.90;100.00;60518.97;5067632;28;20498;-85
2021/09/18 07:50:35;;;;;;;38.15;26.77;;;;;;;-146.90;100.00;60518.97;5067760;28;20115;-79
2021/09/18 07:53:00;;;;;;;39.08;26.40;;;;;;;-146.90;100.00;60518.97;5052967;28;20037;-83
2021/09/18 07:55:26;;;;;;;40.92;26.75;;;;;;;-146.90;100.00;60518.97;5056441;28;20086;-81
2021/09/18 07:57:52;;;;;;;41.03;26.35;;;;;;;-146.90;100.00;60518.97;5071092;28;20071;-83
2021/09/18 08:00:17;;;;;;;37.90;26.88;;;;;;;-146.90;100.00;60518.97;5071319;28;20103;-78
2021/09/18 08:02:42;;;;;;;36.30;26.42;;;;;;;-146.90;100.00;60518.97;5071631;28;20024;-83
2021/09/18 08:05:08;;;;;;;38.88;27.42;;;;;;;-146.90;100.00;60518.97;5070356;28;20036;-80
2021/09/18 08:07:34;;;;;;;39.83;26.70;;;;;;;-146.90;100.00;60518.97;5070316;28;20024;-78
2021/09/18 08:10:00;;;;;;;35.47;26.67;;;;;;;-146.90;100.00;60518.97;5070710;28;20024;-80
2021/09/18 08:12:26;;;;;;;33.72;24.77;;;;;;;-146.90;100.00;60518.97;5071007;28;20631;-78
2021/09/18 08:14:52;;;;;;;35.42;25.52;;;;;;;-146.90;100.00;60518.97;5058879;28;20035;-81
2021/09/18 08:17:17;;;;;;;39.42;28.73;;;;;;;-146.90;100.00;60518.97;5052306;28;20017;-80
2021/09/18 08:19:43;;;;;;;40.47;27.98;;;;;;;-146.90;100.00;60518.97;5051481;28;20017;-81
2021/09/18 08:22:08;;;;;;;36.47;27.40;;;;;;;-146.90;100.00;60518.97;5052247;28;20432;-80
2021/09/18 08:24:33;;;;;;;39.70;29.00;;;;;;;-146.90;100.00;60518.97;5053561;28;20074;-80
2021/09/18 08:26:59;;;;;;;39.22;28.50;;;;;;;-146.90;100.00;60518.97;5055431;28;20028;-77
2021/09/18 08:29:24;;;;;;;42.22;28.98;;;;;;;-146.90;100.00;60518.97;5053676;28;20104;-80
2021/09/18 08:31:49;;;;;;;39.65;29.63;;;;;;;-146.90;100.00;60518.97;5051639;28;20013;-79
2021/09/18 08:34:15;;;;;;;40.13;27.80;;;;;;;-146.90;100.00;60518.97;5052021;28;20626;-78
2021/09/18 08:36:40;;;;;;;35.15;26.42;;;;;;;-146.90;100.00;60518.97;5050123;28;20059;-79
2021/09/18 08:39:05;;;;;;;37.38;26.48;;;;;;;-146.90;100.00;60518.97;5056737;28;20021;-80
2021/09/18 08:41:31;;;;;;;36.25;25.13;;;;;;;-146.90;100.00;60518.97;5053638;28;20025;-80
2021/09/18 08:43:57;;;;;;;35.30;25.42;;;;;;;-146.90;100.00;60518.97;5051546;28;20025;-82
2021/09/18 08:46:24;;;;;;;35.63;25.45;;;;;;;-146.90;100.00;60518.97;5061529;28;20059;-83
2021/09/18 08:48:50;;;;;;;33.30;23.27;;;;;;;-146.90;100.00;60518.97;5057656;28;20103;-78
2021/09/18 08:51:15;;;;;;;32.22;25.92;;;;;;;-146.90;100.00;60518.97;5055050;28;20021;-82
2021/09/18 08:53:41;;;;;;;33.33;25.33;;;;;;;-146.90;100.00;60518.97;5059203;28;20116;-81
2021/09/18 08:56:06;;;;;;;34.75;25.75;;;;;;;-146.90;100.00;60518.97;5052336;28;20037;-83
2021/09/18 08:58:32;;;;;;;33.63;24.27;;;;;;;-146.90;100.00;60518.97;5050915;28;20469;-82
2021/09/18 09:00:58;;;;;;;32.95;24.75;;;;;;;-146.90;100.00;60518.97;5052989;28;20031;-81
2021/09/18 09:03:31;;;;;;;31.23;23.73;;;;;;;-146.90;100.00;60518.97;5051386;28;20025;-81
2021/09/18 09:06:00;;;;;;;31.37;24.97;;;;;;;-146.90;100.00;60518.97;5069023;28;20029;-83
2021/09/18 09:08:25;;;;;;;36.53;23.88;;;;;;;-146.90;100.00;60518.97;5070457;28;20017;-80
2021/09/18 09:10:53;;;;;;;30.30;22.80;;;;;;;-146.90;100.00;60518.97;5069553;28;20031;-80
2021/09/18 09:13:20;;;;;;;32.50;23.08;;;;;;;-146.90;100.00;60518.97;5070080;28;20432;-84
2021/09/18 09:15:48;;;;;;;32.25;23.05;;;;;;;-146.90;100.00;60518.97;5068147;28;20039;-84
2021/09/18 09:18:18;;;;;;;29.60;22.55;;;;;;;-146.90;100.00;60518.97;5069512;28;20572;-88
2021/09/18 09:20:47;;;;;;;29.63;21.27;;;;;;;-146.90;100.00;60518.97;5070149;28;20102;-88
2021/09/18 09:23:21;;;;;;;29.95;21.92;;;;;;;-146.90;100.00;60518.97;5070403;28;20025;-83
2021/09/18 09:25:53;;;;;;;29.08;22.08;;;;;;;-146.90;100.00;60518.97;5070118;28;20431;-87
2021/09/18 09:28:34;;;;;;;28.05;21.65;;;;;;;-146.90;100.00;60518.97;5070758;28;20356;-85
2021/09/18 09:31:09;;;;;;;29.25;21.63;;;;;;;-146.90;100.00;60518.97;5069910;28;20024;-82
2021/09/18 09:33:35;;;;;;;26.42;20.63;;;;;;;-146.90;100.00;60518.97;5069118;28;20086;-86
2021/09/18 09:36:15;;;;;;;27.85;21.30;;;;;;;-146.90;100.00;60518.97;5067544;28;20028;-81
2021/09/18 09:38:53;;;;;;;27.95;21.10;;;;;;;-146.90;100.00;60518.97;5067560;28;20025;-87
2021/09/18 09:41:34;;;;;;;27.70;21.55;;;;;;;-146.90;100.00;60518.97;5069373;28;20519;-87
2021/09/18 09:44:08;;;;;;;22.90;16.88;;;;;;;-146.90;100.00;60518.97;5069132;28;20323;-88
2021/09/18 09:46:33;;;;;;;25.25;19.75;;;;;;;-146.90;100.00;60518.97;5058850;28;20164;-88
2021/09/18 09:49:03;;;;;;;23.33;18.95;;;;;;;-146.90;100.00;60518.97;5069034;28;20603;-87
2021/09/18 09:51:28;;;;;;;24.50;19.42;;;;;;;-146.90;100.00;60518.97;5069442;28;20024;-88
2021/09/18 09:54:13;;;;;;;24.33;18.83;;;;;;;-146.90;100.00;60518.97;5070013;28;20031;-91
2021/09/18 09:56:41;;;;;;;25.95;18.17;;;;;;;-146.90;100.00;60518.97;5071904;28;20036;-93
2021/09/18 09:59:07;;;;;;;24.73;18.17;;;;;;;-146.90;100.00;60518.97;5072532;28;20674;-86
2021/09/18 10:01:32;;;;;;;23.70;17.45;;;;;;;-146.90;100.00;60518.97;5069634;28;20036;-85
2021/09/18 10:03:57;;;;;;;20.25;16.25;;;;;;;-146.90;100.00;60518.97;5069025;28;20024;-84
2021/09/18 10:06:23;;;;;;;25.60;19.33;;;;;;;-146.90;100.00;60518.97;5068223;28;20485;-84
2021/09/18 10:08:50;;;;;;;28.38;20.02;;;;;;;-146.90;100.00;60518.97;5067477;28;20074;-83
2021/09/18 10:11:17;;;;;;;20.85;15.60;;;;;;;-146.90;100.00;60518.97;5068891;28;20027;-91
2021/09/18 10:13:44;;;;;;;32.58;17.73;;;;;;;-146.90;100.00;60518.97;5067799;28;20028;-83
2021/09/18 10:16:10;;;;;;;27.15;19.30;;;;;;;-146.90;100.00;60518.97;5066779;28;20072;-82
2021/09/18 10:18:36;;;;;;;21.00;16.88;;;;;;;-146.90;100.00;60518.97;5067619;28;20028;-83
2021/09/18 10:23:45;;;;;;;15.93;12.05;;;;;;;-146.90;100.00;60518.97;5068954;28;20035;-83
2021/09/18 10:26:12;;;;;;;16.85;12.77;;;;;;;-146.90;100.00;60518.97;5067301;28;20025;-78
2021/09/18 10:28:43;;;;;;;12.82;9.82;;;;;;;-146.90;100.00;60518.97;5068956;28;20051;-78
2021/09/18 10:31:17;;;;;;;12.98;9.73;;;;;;;-146.90;100.00;60518.97;5064466;28;20048;-78
2021/09/18 10:33:46;;;;;;;11.88;8.75;;;;;;;-146.90;100.00;60518.97;5047747;28;20402;-78
2021/09/18 10:36:14;;;;;;;12.05;9.00;;;;;;;-146.90;100.00;60518.97;5054139;28;20063;-78
2021/09/18 10:38:50;;;;;;;12.70;7.32;;;;;;;-146.90;100.00;60518.97;5068214;28;20036;-78
2021/09/18 10:41:19;;;;;;;12.52;9.30;;;;;;;-146.90;100.00;60518.97;5067144;28;20040;-77
2021/09/18 10:44:04;;;;;;;14.00;10.25;;;;;;;-146.90;100.00;60518.97;5068442;28;20107;-79
2021/09/18 10:46:43;;;;;;;15.00;9.52;;;;;;;-146.90;100.00;60518.97;5049800;28;20036;-78
2021/09/18 10:49:40;;;;;;;14.90;9.60;;;;;;;-146.90;100.00;60518.97;5049843;28;20041;-78
2021/09/18 10:52:33;;;;;;;15.90;10.43;;;;;;;-146.90;100.00;60518.97;5065973;28;20470;-78
2021/09/18 10:55:02;;;;;;;14.77;11.40;;;;;;;-146.90;100.00;60518.97;5049292;28;20031;-78